sensor_id;sensor_type;location;lat;lon;timestamp;P1;durP1;ratioP1;P2;durP2;ratioP2
75854;SDS011;64502;59.976;30.316;2022-12-18T00:01:22;10.77;;;4.80;;
75854;SDS011;64502;59.976;30.316;2022-12-18T00:03:50;7.03;;;2.95;;
75854;SDS011;64502;59.976;30.316;2022-12-18T00:06:17;8.57;;;3.30;;
75854;SDS011;64502;59.976;30.316;2022-12-18T00:08:43;7.93;;;2.90;;
75854;SDS011;64502;59.976;30.316;2022-12-18T00:11:14;8.52;;;3.60;;
75854;SDS011;64502;59.976;30.316;2022-12-18T00:13:42;8.25;;;3.63;;
75854;SDS011;64502;59.976;30.316;2022-12-18T00:16:12;8.32;;;3.08;;
75854;SDS011;64502;59.976;30.316;2022-12-18T00:18:40;7.63;;;3.50;;
75854;SDS011;64502;59.976;30.316;2022-12-18T00:21:08;7.03;;;3.60;;
75854;SDS011;64502;59.976;30.316;2022-12-18T00:23:35;8.10;;;3.50;;
75854;SDS011;64502;59.976;30.316;2022-12-18T00:26:02;10.98;;;3.58;;
75854;SDS011;64502;59.976;30.316;2022-12-18T00:28:31;9.55;;;3.70;;
75854;SDS011;64502;59.976;30.316;2022-12-18T00:31:04;8.40;;;3.30;;
75854;SDS011;64502;59.976;30.316;2022-12-18T00:33:35;9.00;;;3.78;;
75854;SDS011;64502;59.976;30.316;2022-12-18T00:36:03;7.85;;;3.53;;
75854;SDS011;64502;59.976;30.316;2022-12-18T00:38:30;5.45;;;2.50;;
75854;SDS011;64502;59.976;30.316;2022-12-18T00:40:56;9.63;;;3.67;;
75854;SDS011;64502;59.976;30.316;2022-12-18T00:43:21;7.90;;;4.22;;
75854;SDS011;64502;59.976;30.316;2022-12-18T00:45:47;9.68;;;4.22;;
75854;SDS011;64502;59.976;30.316;2022-12-18T00:48:13;8.30;;;3.33;;
75854;SDS011;64502;59.976;30.316;2022-12-18T00:50:38;9.57;;;3.53;;
75854;SDS011;64502;59.976;30.316;2022-12-18T00:53:04;9.98;;;3.60;;
75854;SDS011;64502;59.976;30.316;2022-12-18T00:55:29;7.95;;;3.38;;
75854;SDS011;64502;59.976;30.316;2022-12-18T00:57:55;7.47;;;3.35;;
75854;SDS011;64502;59.976;30.316;2022-12-18T01:00:21;8.52;;;3.47;;
75854;SDS011;64502;59.976;30.316;2022-12-18T01:02:47;9.73;;;4.00;;
75854;SDS011;64502;59.976;30.316;2022-12-18T01:05:13;7.70;;;4.57;;
75854;SDS011;64502;59.976;30.316;2022-12-18T01:07:39;9.38;;;3.75;;
75854;SDS011;64502;59.976;30.316;2022-12-18T01:10:05;9.68;;;3.58;;
75854;SDS011;64502;59.976;30.316;2022-12-18T01:12:31;7.40;;;4.03;;
75854;SDS011;64502;59.976;30.316;2022-12-18T01:14:57;9.32;;;3.95;;
75854;SDS011;64502;59.976;30.316;2022-12-18T01:17:23;12.00;;;4.28;;
75854;SDS011;64502;59.976;30.316;2022-12-18T01:19:49;9.07;;;3.90;;
75854;SDS011;64502;59.976;30.316;2022-12-18T01:22:14;11.63;;;4.32;;
75854;SDS011;64502;59.976;30.316;2022-12-18T01:24:40;11.35;;;3.30;;
75854;SDS011;64502;59.976;30.316;2022-12-18T01:27:06;10.10;;;4.38;;
75854;SDS011;64502;59.976;30.316;2022-12-18T01:29:32;8.15;;;3.80;;
75854;SDS011;64502;59.976;30.316;2022-12-18T01:31:57;10.30;;;4.43;;
75854;SDS011;64502;59.976;30.316;2022-12-18T01:34:23;11.48;;;5.20;;
75854;SDS011;64502;59.976;30.316;2022-12-18T01:36:49;8.57;;;4.53;;
75854;SDS011;64502;59.976;30.316;2022-12-18T01:39:17;7.85;;;3.85;;
75854;SDS011;64502;59.976;30.316;2022-12-18T01:41:44;8.63;;;3.45;;
75854;SDS011;64502;59.976;30.316;2022-12-18T01:52:49;12.23;;;5.72;;
75854;SDS011;64502;59.976;30.316;2022-12-18T01:55:18;9.90;;;4.93;;
75854;SDS011;64502;59.976;30.316;2022-12-18T01:57:45;8.88;;;4.05;;
75854;SDS011;64502;59.976;30.316;2022-12-18T02:00:13;10.05;;;4.30;;
75854;SDS011;64502;59.976;30.316;2022-12-18T02:02:41;8.60;;;4.22;;
75854;SDS011;64502;59.976;30.316;2022-12-18T02:05:09;10.75;;;4.50;;
75854;SDS011;64502;59.976;30.316;2022-12-18T02:13:00;12.32;;;4.40;;
75854;SDS011;64502;59.976;30.316;2022-12-18T02:15:47;10.77;;;5.20;;
75854;SDS011;64502;59.976;30.316;2022-12-18T02:18:36;11.95;;;4.97;;
75854;SDS011;64502;59.976;30.316;2022-12-18T02:21:17;9.88;;;5.05;;
75854;SDS011;64502;59.976;30.316;2022-12-18T02:26:50;10.35;;;4.00;;
75854;SDS011;64502;59.976;30.316;2022-12-18T02:32:05;8.85;;;3.80;;
75854;SDS011;64502;59.976;30.316;2022-12-18T02:34:36;10.30;;;3.97;;
75854;SDS011;64502;59.976;30.316;2022-12-18T02:37:04;10.73;;;4.03;;
75854;SDS011;64502;59.976;30.316;2022-12-18T02:39:34;12.02;;;4.53;;
75854;SDS011;64502;59.976;30.316;2022-12-18T02:42:02;13.13;;;4.22;;
75854;SDS011;64502;59.976;30.316;2022-12-18T02:44:33;11.40;;;5.10;;
75854;SDS011;64502;59.976;30.316;2022-12-18T02:47:00;12.25;;;4.63;;
75854;SDS011;64502;59.976;30.316;2022-12-18T02:49:32;12.70;;;4.80;;
75854;SDS011;64502;59.976;30.316;2022-12-18T02:54:41;10.73;;;4.30;;
75854;SDS011;64502;59.976;30.316;2022-12-18T02:57:22;11.75;;;4.13;;
75854;SDS011;64502;59.976;30.316;2022-12-18T03:05:14;8.60;;;4.72;;
75854;SDS011;64502;59.976;30.316;2022-12-18T03:07:49;13.90;;;5.90;;
75854;SDS011;64502;59.976;30.316;2022-12-18T03:10:25;9.50;;;4.88;;
75854;SDS011;64502;59.976;30.316;2022-12-18T03:12:55;12.50;;;5.63;;
75854;SDS011;64502;59.976;30.316;2022-12-18T03:15:37;13.35;;;6.18;;
75854;SDS011;64502;59.976;30.316;2022-12-18T03:18:08;14.18;;;5.55;;
75854;SDS011;64502;59.976;30.316;2022-12-18T03:20:39;14.52;;;5.72;;
75854;SDS011;64502;59.976;30.316;2022-12-18T03:23:12;17.40;;;6.28;;
75854;SDS011;64502;59.976;30.316;2022-12-18T03:25:42;13.68;;;5.82;;
75854;SDS011;64502;59.976;30.316;2022-12-18T03:28:12;17.80;;;6.68;;
75854;SDS011;64502;59.976;30.316;2022-12-18T03:30:41;12.88;;;5.57;;
75854;SDS011;64502;59.976;30.316;2022-12-18T03:36:13;12.68;;;5.43;;
75854;SDS011;64502;59.976;30.316;2022-12-18T03:38:39;13.85;;;6.35;;
75854;SDS011;64502;59.976;30.316;2022-12-18T03:43:50;14.32;;;6.03;;
75854;SDS011;64502;59.976;30.316;2022-12-18T03:46:25;13.02;;;6.50;;
75854;SDS011;64502;59.976;30.316;2022-12-18T03:48:59;15.88;;;5.72;;
75854;SDS011;64502;59.976;30.316;2022-12-18T03:54:07;15.50;;;6.47;;
75854;SDS011;64502;59.976;30.316;2022-12-18T03:56:36;17.10;;;7.00;;
75854;SDS011;64502;59.976;30.316;2022-12-18T03:59:09;16.05;;;6.45;;
75854;SDS011;64502;59.976;30.316;2022-12-18T04:01:42;14.65;;;7.07;;
75854;SDS011;64502;59.976;30.316;2022-12-18T04:04:13;13.75;;;5.60;;
75854;SDS011;64502;59.976;30.316;2022-12-18T04:06:41;15.77;;;7.32;;
75854;SDS011;64502;59.976;30.316;2022-12-18T04:09:08;16.17;;;7.05;;
75854;SDS011;64502;59.976;30.316;2022-12-18T04:11:34;17.33;;;7.22;;
75854;SDS011;64502;59.976;30.316;2022-12-18T04:14:00;15.93;;;6.57;;
75854;SDS011;64502;59.976;30.316;2022-12-18T04:16:26;16.17;;;6.47;;
75854;SDS011;64502;59.976;30.316;2022-12-18T04:18:52;16.25;;;6.95;;
75854;SDS011;64502;59.976;30.316;2022-12-18T04:21:18;16.58;;;6.55;;
75854;SDS011;64502;59.976;30.316;2022-12-18T04:23:44;21.80;;;8.75;;
75854;SDS011;64502;59.976;30.316;2022-12-18T04:26:10;21.13;;;8.13;;
75854;SDS011;64502;59.976;30.316;2022-12-18T04:28:36;21.85;;;7.65;;
75854;SDS011;64502;59.976;30.316;2022-12-18T04:31:01;17.10;;;7.07;;
75854;SDS011;64502;59.976;30.316;2022-12-18T04:33:27;13.82;;;6.20;;
75854;SDS011;64502;59.976;30.316;2022-12-18T04:35:53;19.20;;;7.07;;
75854;SDS011;64502;59.976;30.316;2022-12-18T04:38:18;20.00;;;7.78;;
75854;SDS011;64502;59.976;30.316;2022-12-18T04:40:44;20.08;;;7.88;;
75854;SDS011;64502;59.976;30.316;2022-12-18T04:43:09;20.88;;;7.63;;
75854;SDS011;64502;59.976;30.316;2022-12-18T04:45:35;14.82;;;7.60;;
75854;SDS011;64502;59.976;30.316;2022-12-18T04:48:01;17.67;;;7.40;;
75854;SDS011;64502;59.976;30.316;2022-12-18T04:50:27;16.00;;;7.03;;
75854;SDS011;64502;59.976;30.316;2022-12-18T04:52:53;17.38;;;7.38;;
75854;SDS011;64502;59.976;30.316;2022-12-18T04:55:18;19.70;;;7.80;;
75854;SDS011;64502;59.976;30.316;2022-12-18T04:57:44;21.40;;;8.82;;
75854;SDS011;64502;59.976;30.316;2022-12-18T05:00:10;16.13;;;7.28;;
75854;SDS011;64502;59.976;30.316;2022-12-18T05:02:36;18.67;;;7.35;;
75854;SDS011;64502;59.976;30.316;2022-12-18T05:05:01;15.57;;;6.53;;
75854;SDS011;64502;59.976;30.316;2022-12-18T05:07:27;22.00;;;8.07;;
75854;SDS011;64502;59.976;30.316;2022-12-18T05:09:54;16.70;;;8.35;;
75854;SDS011;64502;59.976;30.316;2022-12-18T05:12:20;18.88;;;7.18;;
75854;SDS011;64502;59.976;30.316;2022-12-18T05:14:46;16.73;;;6.82;;
75854;SDS011;64502;59.976;30.316;2022-12-18T05:17:11;21.48;;;9.40;;
75854;SDS011;64502;59.976;30.316;2022-12-18T05:19:37;17.10;;;5.97;;
75854;SDS011;64502;59.976;30.316;2022-12-18T05:22:02;20.95;;;9.27;;
75854;SDS011;64502;59.976;30.316;2022-12-18T05:24:28;17.15;;;7.57;;
75854;SDS011;64502;59.976;30.316;2022-12-18T05:26:54;16.88;;;7.78;;
75854;SDS011;64502;59.976;30.316;2022-12-18T05:29:19;20.95;;;7.90;;
75854;SDS011;64502;59.976;30.316;2022-12-18T05:31:45;21.92;;;8.90;;
75854;SDS011;64502;59.976;30.316;2022-12-18T05:34:11;21.95;;;8.75;;
75854;SDS011;64502;59.976;30.316;2022-12-18T05:36:36;22.60;;;7.32;;
75854;SDS011;64502;59.976;30.316;2022-12-18T05:39:02;20.10;;;7.93;;
75854;SDS011;64502;59.976;30.316;2022-12-18T05:41:28;20.60;;;9.63;;
75854;SDS011;64502;59.976;30.316;2022-12-18T05:43:53;23.85;;;10.68;;
75854;SDS011;64502;59.976;30.316;2022-12-18T05:46:20;19.73;;;8.07;;
75854;SDS011;64502;59.976;30.316;2022-12-18T05:48:46;24.98;;;9.65;;
75854;SDS011;64502;59.976;30.316;2022-12-18T05:51:13;21.08;;;8.75;;
75854;SDS011;64502;59.976;30.316;2022-12-18T05:53:40;25.73;;;9.82;;
75854;SDS011;64502;59.976;30.316;2022-12-18T05:56:08;23.33;;;8.98;;
75854;SDS011;64502;59.976;30.316;2022-12-18T05:58:36;18.92;;;7.57;;
75854;SDS011;64502;59.976;30.316;2022-12-18T06:01:10;20.20;;;8.73;;
75854;SDS011;64502;59.976;30.316;2022-12-18T06:03:36;21.67;;;8.02;;
75854;SDS011;64502;59.976;30.316;2022-12-18T06:06:01;21.42;;;9.00;;
75854;SDS011;64502;59.976;30.316;2022-12-18T06:08:27;20.60;;;8.48;;
75854;SDS011;64502;59.976;30.316;2022-12-18T06:10:53;19.17;;;9.13;;
75854;SDS011;64502;59.976;30.316;2022-12-18T06:13:19;20.33;;;8.95;;
75854;SDS011;64502;59.976;30.316;2022-12-18T06:15:45;23.98;;;11.05;;
75854;SDS011;64502;59.976;30.316;2022-12-18T06:18:10;21.13;;;8.55;;
75854;SDS011;64502;59.976;30.316;2022-12-18T06:20:36;16.02;;;8.85;;
75854;SDS011;64502;59.976;30.316;2022-12-18T06:23:04;18.52;;;8.93;;
75854;SDS011;64502;59.976;30.316;2022-12-18T06:25:30;14.85;;;7.00;;
75854;SDS011;64502;59.976;30.316;2022-12-18T06:27:56;22.95;;;10.90;;
75854;SDS011;64502;59.976;30.316;2022-12-18T06:30:22;17.63;;;8.57;;
75854;SDS011;64502;59.976;30.316;2022-12-18T06:32:48;20.65;;;8.57;;
75854;SDS011;64502;59.976;30.316;2022-12-18T06:35:14;20.20;;;9.23;;
75854;SDS011;64502;59.976;30.316;2022-12-18T06:37:40;18.77;;;7.63;;
75854;SDS011;64502;59.976;30.316;2022-12-18T06:40:06;18.67;;;7.85;;
75854;SDS011;64502;59.976;30.316;2022-12-18T06:42:32;17.90;;;8.23;;
75854;SDS011;64502;59.976;30.316;2022-12-18T06:44:57;15.90;;;7.28;;
75854;SDS011;64502;59.976;30.316;2022-12-18T06:47:23;19.08;;;7.00;;
75854;SDS011;64502;59.976;30.316;2022-12-18T06:49:48;18.30;;;7.05;;
75854;SDS011;64502;59.976;30.316;2022-12-18T06:52:14;14.13;;;6.57;;
75854;SDS011;64502;59.976;30.316;2022-12-18T06:54:39;12.70;;;6.28;;
75854;SDS011;64502;59.976;30.316;2022-12-18T06:57:05;16.38;;;6.35;;
75854;SDS011;64502;59.976;30.316;2022-12-18T06:59:30;17.52;;;6.80;;
75854;SDS011;64502;59.976;30.316;2022-12-18T07:01:56;14.02;;;6.65;;
75854;SDS011;64502;59.976;30.316;2022-12-18T07:04:21;20.40;;;11.07;;
75854;SDS011;64502;59.976;30.316;2022-12-18T07:06:47;19.08;;;9.07;;
75854;SDS011;64502;59.976;30.316;2022-12-18T07:09:14;16.95;;;7.03;;
75854;SDS011;64502;59.976;30.316;2022-12-18T07:11:39;17.77;;;7.40;;
75854;SDS011;64502;59.976;30.316;2022-12-18T07:14:05;23.10;;;9.38;;
75854;SDS011;64502;59.976;30.316;2022-12-18T07:16:30;19.42;;;7.88;;
75854;SDS011;64502;59.976;30.316;2022-12-18T07:18:56;21.02;;;7.72;;
75854;SDS011;64502;59.976;30.316;2022-12-18T07:21:22;20.92;;;8.18;;
75854;SDS011;64502;59.976;30.316;2022-12-18T07:23:48;20.33;;;8.82;;
75854;SDS011;64502;59.976;30.316;2022-12-18T07:26:15;21.77;;;8.18;;
75854;SDS011;64502;59.976;30.316;2022-12-18T07:28:42;18.30;;;7.28;;
75854;SDS011;64502;59.976;30.316;2022-12-18T07:31:11;20.50;;;9.43;;
75854;SDS011;64502;59.976;30.316;2022-12-18T07:33:40;21.00;;;8.23;;
75854;SDS011;64502;59.976;30.316;2022-12-18T07:36:06;26.63;;;9.32;;
75854;SDS011;64502;59.976;30.316;2022-12-18T07:38:33;24.13;;;7.13;;
75854;SDS011;64502;59.976;30.316;2022-12-18T07:41:03;17.17;;;6.60;;
75854;SDS011;64502;59.976;30.316;2022-12-18T07:43:31;20.65;;;8.63;;
75854;SDS011;64502;59.976;30.316;2022-12-18T07:45:56;22.13;;;8.73;;
75854;SDS011;64502;59.976;30.316;2022-12-18T07:48:22;23.23;;;8.52;;
75854;SDS011;64502;59.976;30.316;2022-12-18T07:50:49;18.95;;;7.20;;
75854;SDS011;64502;59.976;30.316;2022-12-18T07:53:14;23.25;;;8.48;;
75854;SDS011;64502;59.976;30.316;2022-12-18T07:55:40;16.42;;;8.57;;
75854;SDS011;64502;59.976;30.316;2022-12-18T07:58:07;17.50;;;6.75;;
75854;SDS011;64502;59.976;30.316;2022-12-18T08:00:33;16.50;;;5.13;;
75854;SDS011;64502;59.976;30.316;2022-12-18T08:02:59;19.60;;;8.35;;
75854;SDS011;64502;59.976;30.316;2022-12-18T08:05:25;21.48;;;8.90;;
75854;SDS011;64502;59.976;30.316;2022-12-18T08:07:51;15.38;;;6.90;;
75854;SDS011;64502;59.976;30.316;2022-12-18T08:10:16;20.90;;;8.38;;
75854;SDS011;64502;59.976;30.316;2022-12-18T08:12:42;18.65;;;8.43;;
75854;SDS011;64502;59.976;30.316;2022-12-18T08:15:08;18.98;;;8.65;;
75854;SDS011;64502;59.976;30.316;2022-12-18T08:17:34;18.90;;;7.43;;
75854;SDS011;64502;59.976;30.316;2022-12-18T08:19:59;24.17;;;8.13;;
75854;SDS011;64502;59.976;30.316;2022-12-18T08:22:25;20.20;;;7.82;;
75854;SDS011;64502;59.976;30.316;2022-12-18T08:24:50;21.27;;;7.95;;
75854;SDS011;64502;59.976;30.316;2022-12-18T08:27:17;23.33;;;9.43;;
75854;SDS011;64502;59.976;30.316;2022-12-18T08:29:42;18.83;;;7.57;;
75854;SDS011;64502;59.976;30.316;2022-12-18T08:32:08;21.58;;;8.45;;
75854;SDS011;64502;59.976;30.316;2022-12-18T08:34:33;20.50;;;7.70;;
75854;SDS011;64502;59.976;30.316;2022-12-18T08:36:59;17.98;;;5.93;;
75854;SDS011;64502;59.976;30.316;2022-12-18T08:39:24;25.23;;;8.48;;
75854;SDS011;64502;59.976;30.316;2022-12-18T08:41:50;24.42;;;9.30;;
75854;SDS011;64502;59.976;30.316;2022-12-18T08:44:36;22.33;;;9.63;;
75854;SDS011;64502;59.976;30.316;2022-12-18T08:47:07;22.40;;;9.75;;
75854;SDS011;64502;59.976;30.316;2022-12-18T08:52:00;25.75;;;9.65;;
75854;SDS011;64502;59.976;30.316;2022-12-18T08:54:26;26.85;;;9.35;;
75854;SDS011;64502;59.976;30.316;2022-12-18T08:56:52;26.60;;;9.40;;
75854;SDS011;64502;59.976;30.316;2022-12-18T08:59:18;26.83;;;10.15;;
75854;SDS011;64502;59.976;30.316;2022-12-18T09:01:44;28.20;;;10.98;;
75854;SDS011;64502;59.976;30.316;2022-12-18T09:04:10;31.35;;;11.23;;
75854;SDS011;64502;59.976;30.316;2022-12-18T09:06:36;30.55;;;11.35;;
75854;SDS011;64502;59.976;30.316;2022-12-18T09:09:02;26.00;;;11.38;;
75854;SDS011;64502;59.976;30.316;2022-12-18T09:11:29;27.20;;;10.18;;
75854;SDS011;64502;59.976;30.316;2022-12-18T09:13:55;28.25;;;10.18;;
75854;SDS011;64502;59.976;30.316;2022-12-18T09:16:21;26.05;;;9.43;;
75854;SDS011;64502;59.976;30.316;2022-12-18T09:18:47;26.85;;;10.27;;
75854;SDS011;64502;59.976;30.316;2022-12-18T09:21:14;25.95;;;11.35;;
75854;SDS011;64502;59.976;30.316;2022-12-18T09:23:42;26.98;;;9.15;;
75854;SDS011;64502;59.976;30.316;2022-12-18T09:26:07;21.45;;;8.43;;
75854;SDS011;64502;59.976;30.316;2022-12-18T09:28:33;20.35;;;7.93;;
75854;SDS011;64502;59.976;30.316;2022-12-18T09:31:02;21.58;;;7.90;;
75854;SDS011;64502;59.976;30.316;2022-12-18T09:33:29;18.92;;;7.60;;
75854;SDS011;64502;59.976;30.316;2022-12-18T09:35:55;20.45;;;7.95;;
75854;SDS011;64502;59.976;30.316;2022-12-18T09:38:20;17.52;;;7.15;;
75854;SDS011;64502;59.976;30.316;2022-12-18T09:40:50;16.95;;;6.97;;
75854;SDS011;64502;59.976;30.316;2022-12-18T09:43:29;16.65;;;6.72;;
75854;SDS011;64502;59.976;30.316;2022-12-18T09:46:07;14.68;;;7.07;;
75854;SDS011;64502;59.976;30.316;2022-12-18T09:48:40;15.40;;;6.47;;
75854;SDS011;64502;59.976;30.316;2022-12-18T09:51:17;16.65;;;7.22;;
75854;SDS011;64502;59.976;30.316;2022-12-18T09:53:47;16.23;;;6.57;;
75854;SDS011;64502;59.976;30.316;2022-12-18T09:56:21;12.43;;;5.55;;
75854;SDS011;64502;59.976;30.316;2022-12-18T10:01:27;14.00;;;5.75;;
75854;SDS011;64502;59.976;30.316;2022-12-18T10:03:54;16.23;;;6.20;;
75854;SDS011;64502;59.976;30.316;2022-12-18T10:06:21;12.50;;;5.68;;
75854;SDS011;64502;59.976;30.316;2022-12-18T10:14:23;11.55;;;5.32;;
75854;SDS011;64502;59.976;30.316;2022-12-18T10:19:35;14.48;;;4.55;;
75854;SDS011;64502;59.976;30.316;2022-12-18T10:27:47;13.55;;;5.55;;
75854;SDS011;64502;59.976;30.316;2022-12-18T10:30:19;15.85;;;5.05;;
75854;SDS011;64502;59.976;30.316;2022-12-18T10:32:46;11.93;;;5.15;;
75854;SDS011;64502;59.976;30.316;2022-12-18T10:35:19;14.73;;;5.47;;
75854;SDS011;64502;59.976;30.316;2022-12-18T10:38:00;14.40;;;5.07;;
75854;SDS011;64502;59.976;30.316;2022-12-18T10:40:31;15.48;;;5.05;;
75854;SDS011;64502;59.976;30.316;2022-12-18T10:43:13;10.18;;;5.05;;
75854;SDS011;64502;59.976;30.316;2022-12-18T10:45:40;13.13;;;5.97;;
75854;SDS011;64502;59.976;30.316;2022-12-18T10:48:19;14.50;;;5.32;;
75854;SDS011;64502;59.976;30.316;2022-12-18T10:50:47;12.20;;;5.07;;
75854;SDS011;64502;59.976;30.316;2022-12-18T10:53:19;14.55;;;5.25;;
75854;SDS011;64502;59.976;30.316;2022-12-18T10:55:47;14.57;;;5.72;;
75854;SDS011;64502;59.976;30.316;2022-12-18T10:58:15;13.73;;;4.85;;
75854;SDS011;64502;59.976;30.316;2022-12-18T11:01:06;12.88;;;5.13;;
75854;SDS011;64502;59.976;30.316;2022-12-18T11:03:41;8.73;;;4.00;;
75854;SDS011;64502;59.976;30.316;2022-12-18T11:06:12;10.55;;;4.07;;
75854;SDS011;64502;59.976;30.316;2022-12-18T11:08:39;13.15;;;5.35;;
75854;SDS011;64502;59.976;30.316;2022-12-18T11:11:20;11.30;;;3.83;;
75854;SDS011;64502;59.976;30.316;2022-12-18T11:16:22;12.73;;;4.65;;
75854;SDS011;64502;59.976;30.316;2022-12-18T11:18:48;8.40;;;4.00;;
75854;SDS011;64502;59.976;30.316;2022-12-18T11:21:14;13.38;;;5.30;;
75854;SDS011;64502;59.976;30.316;2022-12-18T11:23:58;13.07;;;5.03;;
75854;SDS011;64502;59.976;30.316;2022-12-18T11:26:28;12.00;;;4.50;;
75854;SDS011;64502;59.976;30.316;2022-12-18T11:29:09;8.70;;;4.65;;
75854;SDS011;64502;59.976;30.316;2022-12-18T11:31:40;11.48;;;4.93;;
75854;SDS011;64502;59.976;30.316;2022-12-18T11:36:39;11.60;;;4.15;;
75854;SDS011;64502;59.976;30.316;2022-12-18T11:39:22;10.98;;;3.75;;
75854;SDS011;64502;59.976;30.316;2022-12-18T11:41:56;12.32;;;4.57;;
75854;SDS011;64502;59.976;30.316;2022-12-18T11:47:35;13.30;;;5.43;;
75854;SDS011;64502;59.976;30.316;2022-12-18T11:50:10;10.63;;;4.03;;
75854;SDS011;64502;59.976;30.316;2022-12-18T11:52:39;9.93;;;4.22;;
75854;SDS011;64502;59.976;30.316;2022-12-18T11:55:13;14.68;;;4.78;;
75854;SDS011;64502;59.976;30.316;2022-12-18T11:58:01;15.60;;;5.25;;
75854;SDS011;64502;59.976;30.316;2022-12-18T12:00:40;13.32;;;4.13;;
75854;SDS011;64502;59.976;30.316;2022-12-18T12:11:07;16.40;;;6.32;;
75854;SDS011;64502;59.976;30.316;2022-12-18T12:16:41;16.70;;;5.45;;
75854;SDS011;64502;59.976;30.316;2022-12-18T12:19:24;14.07;;;5.45;;
75854;SDS011;64502;59.976;30.316;2022-12-18T12:22:02;14.57;;;4.93;;
75854;SDS011;64502;59.976;30.316;2022-12-18T12:24:58;18.90;;;6.32;;
75854;SDS011;64502;59.976;30.316;2022-12-18T12:30:19;20.88;;;7.35;;
75854;SDS011;64502;59.976;30.316;2022-12-18T12:33:15;20.13;;;5.95;;
75854;SDS011;64502;59.976;30.316;2022-12-18T12:41:05;17.65;;;5.78;;
75854;SDS011;64502;59.976;30.316;2022-12-18T12:43:54;14.30;;;4.13;;
75854;SDS011;64502;59.976;30.316;2022-12-18T12:46:22;14.75;;;5.95;;
75854;SDS011;64502;59.976;30.316;2022-12-18T12:48:58;16.38;;;6.25;;
75854;SDS011;64502;59.976;30.316;2022-12-18T12:51:37;13.77;;;5.25;;
75854;SDS011;64502;59.976;30.316;2022-12-18T12:54:08;17.15;;;5.43;;
75854;SDS011;64502;59.976;30.316;2022-12-18T12:56:56;12.07;;;5.20;;
75854;SDS011;64502;59.976;30.316;2022-12-18T13:05:24;15.75;;;5.53;;
75854;SDS011;64502;59.976;30.316;2022-12-18T13:08:05;13.82;;;4.88;;
75854;SDS011;64502;59.976;30.316;2022-12-18T13:10:37;14.32;;;5.18;;
75854;SDS011;64502;59.976;30.316;2022-12-18T13:13:12;12.23;;;5.13;;
75854;SDS011;64502;59.976;30.316;2022-12-18T13:15:46;18.70;;;4.72;;
75854;SDS011;64502;59.976;30.316;2022-12-18T13:25:54;16.67;;;6.03;;
75854;SDS011;64502;59.976;30.316;2022-12-18T13:31:12;17.65;;;6.20;;
75854;SDS011;64502;59.976;30.316;2022-12-18T13:33:42;16.77;;;6.78;;
75854;SDS011;64502;59.976;30.316;2022-12-18T13:36:16;13.75;;;4.85;;
75854;SDS011;64502;59.976;30.316;2022-12-18T13:38:41;14.40;;;4.47;;
75854;SDS011;64502;59.976;30.316;2022-12-18T13:46:23;17.08;;;5.22;;
75854;SDS011;64502;59.976;30.316;2022-12-18T13:48:57;13.68;;;5.43;;
75854;SDS011;64502;59.976;30.316;2022-12-18T13:51:44;14.10;;;5.15;;
75854;SDS011;64502;59.976;30.316;2022-12-18T13:56:45;18.05;;;6.85;;
75854;SDS011;64502;59.976;30.316;2022-12-18T13:59:13;15.10;;;5.18;;
75854;SDS011;64502;59.976;30.316;2022-12-18T14:01:43;15.15;;;5.13;;
75854;SDS011;64502;59.976;30.316;2022-12-18T14:04:11;12.07;;;4.57;;
75854;SDS011;64502;59.976;30.316;2022-12-18T14:06:43;13.65;;;5.45;;
75854;SDS011;64502;59.976;30.316;2022-12-18T14:09:13;11.27;;;5.45;;
75854;SDS011;64502;59.976;30.316;2022-12-18T14:11:40;15.07;;;5.25;;
75854;SDS011;64502;59.976;30.316;2022-12-18T14:14:13;15.43;;;5.38;;
75854;SDS011;64502;59.976;30.316;2022-12-18T14:16:41;13.10;;;6.32;;
75854;SDS011;64502;59.976;30.316;2022-12-18T14:19:08;16.10;;;5.55;;
75854;SDS011;64502;59.976;30.316;2022-12-18T14:21:39;15.80;;;4.85;;
75854;SDS011;64502;59.976;30.316;2022-12-18T14:26:34;12.40;;;4.60;;
75854;SDS011;64502;59.976;30.316;2022-12-18T14:29:00;14.60;;;5.50;;
75854;SDS011;64502;59.976;30.316;2022-12-18T14:31:42;13.00;;;5.07;;
75854;SDS011;64502;59.976;30.316;2022-12-18T14:34:14;14.20;;;5.32;;
75854;SDS011;64502;59.976;30.316;2022-12-18T14:36:40;16.90;;;5.57;;
75854;SDS011;64502;59.976;30.316;2022-12-18T14:39:13;14.18;;;5.43;;
75854;SDS011;64502;59.976;30.316;2022-12-18T14:41:42;11.07;;;4.57;;
75854;SDS011;64502;59.976;30.316;2022-12-18T14:44:10;18.83;;;5.90;;
75854;SDS011;64502;59.976;30.316;2022-12-18T14:46:47;15.85;;;5.40;;
75854;SDS011;64502;59.976;30.316;2022-12-18T14:51:55;13.48;;;4.70;;
75854;SDS011;64502;59.976;30.316;2022-12-18T14:54:28;17.27;;;6.03;;
75854;SDS011;64502;59.976;30.316;2022-12-18T14:57:02;14.85;;;4.63;;
75854;SDS011;64502;59.976;30.316;2022-12-18T14:59:33;15.25;;;5.03;;
75854;SDS011;64502;59.976;30.316;2022-12-18T15:01:59;13.02;;;4.57;;
75854;SDS011;64502;59.976;30.316;2022-12-18T15:07:22;10.10;;;4.35;;
75854;SDS011;64502;59.976;30.316;2022-12-18T15:10:02;7.25;;;3.13;;
75854;SDS011;64502;59.976;30.316;2022-12-18T15:17:59;8.77;;;3.85;;
75854;SDS011;64502;59.976;30.316;2022-12-18T15:20:25;9.75;;;4.10;;
75854;SDS011;64502;59.976;30.316;2022-12-18T15:22:51;9.18;;;3.50;;
75854;SDS011;64502;59.976;30.316;2022-12-18T15:25:34;11.73;;;3.85;;
75854;SDS011;64502;59.976;30.316;2022-12-18T15:28:28;8.60;;;3.17;;
75854;SDS011;64502;59.976;30.316;2022-12-18T15:31:01;7.40;;;2.80;;
75854;SDS011;64502;59.976;30.316;2022-12-18T15:33:38;8.48;;;2.38;;
75854;SDS011;64502;59.976;30.316;2022-12-18T15:36:08;10.52;;;3.38;;
75854;SDS011;64502;59.976;30.316;2022-12-18T15:38:36;10.50;;;4.70;;
75854;SDS011;64502;59.976;30.316;2022-12-18T15:41:01;10.57;;;3.67;;
75854;SDS011;64502;59.976;30.316;2022-12-18T15:43:27;6.68;;;3.25;;
75854;SDS011;64502;59.976;30.316;2022-12-18T15:46:03;7.60;;;2.88;;
75854;SDS011;64502;59.976;30.316;2022-12-18T15:48:32;7.95;;;3.22;;
75854;SDS011;64502;59.976;30.316;2022-12-18T15:50:59;6.40;;;2.40;;
75854;SDS011;64502;59.976;30.316;2022-12-18T15:53:27;5.20;;;2.05;;
75854;SDS011;64502;59.976;30.316;2022-12-18T15:55:57;9.68;;;3.38;;
75854;SDS011;64502;59.976;30.316;2022-12-18T15:58:41;8.82;;;3.13;;
75854;SDS011;64502;59.976;30.316;2022-12-18T16:01:07;7.97;;;2.42;;
75854;SDS011;64502;59.976;30.316;2022-12-18T16:03:35;11.55;;;3.17;;
75854;SDS011;64502;59.976;30.316;2022-12-18T16:06:00;6.50;;;2.30;;
75854;SDS011;64502;59.976;30.316;2022-12-18T16:08:27;7.43;;;3.20;;
75854;SDS011;64502;59.976;30.316;2022-12-18T16:10:54;5.47;;;2.55;;
75854;SDS011;64502;59.976;30.316;2022-12-18T16:13:21;9.85;;;3.25;;
75854;SDS011;64502;59.976;30.316;2022-12-18T16:15:46;6.70;;;2.95;;
75854;SDS011;64502;59.976;30.316;2022-12-18T16:18:12;7.00;;;3.10;;
75854;SDS011;64502;59.976;30.316;2022-12-18T16:20:38;8.55;;;3.10;;
75854;SDS011;64502;59.976;30.316;2022-12-18T16:23:07;8.15;;;3.28;;
75854;SDS011;64502;59.976;30.316;2022-12-18T16:25:32;8.27;;;2.72;;
75854;SDS011;64502;59.976;30.316;2022-12-18T16:27:58;10.48;;;3.45;;
75854;SDS011;64502;59.976;30.316;2022-12-18T16:30:25;8.15;;;3.67;;
75854;SDS011;64502;59.976;30.316;2022-12-18T16:32:53;7.78;;;2.45;;
75854;SDS011;64502;59.976;30.316;2022-12-18T16:35:20;7.47;;;3.10;;